createdAt,value
2019-01-02T00:00:38.906Z,4.10
2019-01-02T00:03:07.442Z,4.10
2019-01-02T00:05:36.369Z,4.00
2019-01-02T00:08:04.889Z,4.00
2019-01-02T00:10:33.825Z,4.00
2019-01-02T00:13:02.354Z,4.00
2019-01-02T00:15:31.287Z,3.90
2019-01-02T00:17:59.798Z,3.90
2019-01-02T00:20:28.331Z,3.90
2019-01-02T00:22:56.842Z,3.80
2019-01-02T00:25:25.304Z,3.80
2019-01-02T00:27:54.217Z,3.80
2019-01-02T00:30:22.681Z,3.80
2019-01-02T00:32:51.513Z,3.70
2019-01-02T00:35:20.042Z,3.50
2019-01-02T00:37:49.592Z,3.30
2019-01-02T00:40:18.009Z,3.10
2019-01-02T00:42:46.936Z,2.90
2019-01-02T00:45:15.377Z,2.90
2019-01-02T00:47:44.330Z,2.80
2019-01-02T00:50:32.196Z,2.70
2019-01-02T00:53:00.714Z,2.60
2019-01-02T00:55:29.700Z,2.50
2019-01-02T00:57:58.234Z,2.50
2019-01-02T01:00:26.965Z,2.40
2019-01-02T01:02:55.498Z,2.40
2019-01-02T01:05:43.323Z,2.40
2019-01-02T01:08:12.403Z,2.40
2019-01-02T01:10:42.004Z,2.40
2019-01-02T01:13:10.518Z,2.40
2019-01-02T01:15:45.299Z,2.50
2019-01-02T01:18:13.852Z,2.50
2019-01-02T01:20:42.774Z,2.50
2019-01-02T01:23:11.367Z,2.50
2019-01-02T01:25:40.189Z,2.50
2019-01-02T01:28:08.701Z,2.50
2019-01-02T01:30:37.235Z,2.40
2019-01-02T01:33:26.752Z,2.40
2019-01-02T01:35:55.365Z,2.40
2019-01-02T01:38:23.875Z,2.30
2019-01-02T01:40:52.717Z,2.30
2019-01-02T01:43:21.224Z,2.40
2019-01-02T01:45:49.698Z,2.40
2019-01-02T01:48:18.150Z,2.40
2019-01-02T01:50:46.591Z,2.40
2019-01-02T01:53:15.327Z,2.40
2019-01-02T01:55:44.081Z,2.50
2019-01-02T01:58:12.517Z,2.50
2019-01-02T02:00:41.475Z,2.50
2019-01-02T02:03:09.986Z,2.50
2019-01-02T02:05:38.827Z,2.50
2019-01-02T02:08:07.267Z,2.50
2019-01-02T02:10:35.702Z,2.50
2019-01-02T02:13:04.706Z,2.50
2019-01-02T02:15:33.134Z,2.50
2019-01-02T02:18:01.756Z,2.50
2019-01-02T02:20:30.264Z,2.50
2019-01-02T02:22:58.707Z,2.50
2019-01-02T02:25:27.662Z,2.50
2019-01-02T02:27:56.181Z,2.50
2019-01-02T02:30:24.707Z,2.40
2019-01-02T02:32:53.189Z,2.50
2019-01-02T02:35:21.708Z,2.40
2019-01-02T02:37:50.634Z,2.40
2019-01-02T02:40:19.153Z,2.40
2019-01-02T02:42:47.686Z,2.40
2019-01-02T02:45:16.602Z,2.40
2019-01-02T02:48:06.122Z,2.40
2019-01-02T02:50:54.370Z,2.40
2019-01-02T02:53:23.220Z,2.40
2019-01-02T02:55:52.241Z,2.40
2019-01-02T02:58:40.321Z,2.40
2019-01-02T03:01:09.138Z,2.40
2019-01-02T03:03:37.974Z,2.40
2019-01-02T03:06:06.788Z,2.40
2019-01-02T03:08:35.221Z,2.40
2019-01-02T03:11:03.744Z,2.50
2019-01-02T03:13:32.603Z,2.50
2019-01-02T03:16:01.521Z,2.50
2019-01-02T03:18:30.229Z,2.40
2019-01-02T03:21:11.768Z,2.40
2019-01-02T03:23:40.266Z,2.40
2019-01-02T03:26:08.704Z,2.30
2019-01-02T03:28:56.578Z,2.30
2019-01-02T03:31:44.835Z,2.30
2019-01-02T03:34:13.769Z,2.30
2019-01-02T03:37:01.574Z,2.40
2019-01-02T03:39:30.107Z,2.40
2019-01-02T03:41:58.551Z,2.40
2019-01-02T03:44:27.010Z,2.40
2019-01-02T03:46:55.465Z,2.40
2019-01-02T03:49:23.970Z,2.40
2019-01-02T03:51:52.429Z,2.30
2019-01-02T03:54:20.877Z,2.20
2019-01-02T03:56:49.321Z,2.20
2019-01-02T03:59:17.773Z,2.10
2019-01-02T04:01:46.218Z,2.10
2019-01-02T04:04:15.484Z,2.00
2019-01-02T04:06:44.662Z,1.90
2019-01-02T04:09:14.056Z,1.90
2019-01-02T04:11:43.331Z,1.80
2019-01-02T04:14:11.770Z,1.70
2019-01-02T04:16:40.208Z,1.80
2019-01-02T04:19:08.670Z,1.80
2019-01-02T04:21:37.137Z,1.80
2019-01-02T04:24:05.655Z,1.80
2019-01-02T04:26:34.085Z,1.90
2019-01-02T04:29:21.890Z,1.90
2019-01-02T04:31:50.331Z,1.90
2019-01-02T04:34:18.765Z,1.90
2019-01-02T04:36:47.234Z,1.90
2019-01-02T04:39:15.675Z,1.90
2019-01-02T04:41:44.210Z,2.00
2019-01-02T04:44:12.655Z,2.00
2019-01-02T04:46:41.347Z,2.00
2019-01-02T04:49:15.006Z,2.00
2019-01-02T04:51:43.447Z,2.00
2019-01-02T04:54:11.922Z,2.10
2019-01-02T04:56:40.426Z,2.10
2019-01-02T04:59:08.859Z,2.10
2019-01-02T05:01:37.397Z,2.10
2019-01-02T05:04:05.834Z,2.20
2019-01-02T05:06:34.317Z,2.20
2019-01-02T05:09:03.721Z,2.20
2019-01-02T05:11:32.154Z,2.20
2019-01-02T05:14:00.683Z,2.20
2019-01-02T05:16:29.114Z,2.20
2019-01-02T05:18:57.620Z,2.20
2019-01-02T05:21:26.069Z,2.20
2019-01-02T05:23:54.527Z,2.20
2019-01-02T05:26:22.978Z,2.20
2019-01-02T05:28:51.413Z,2.30
2019-01-02T05:31:39.215Z,2.30
2019-01-02T05:34:07.646Z,2.30
2019-01-02T05:36:36.182Z,2.30
2019-01-02T05:39:06.377Z,2.30
2019-01-02T05:41:34.811Z,2.30
2019-01-02T05:44:03.272Z,2.30
2019-01-02T05:46:31.705Z,2.30
2019-01-02T05:49:00.146Z,2.30
2019-01-02T05:51:28.602Z,2.30
2019-01-02T05:53:57.047Z,2.30
2019-01-02T05:56:44.915Z,2.30
2019-01-02T05:59:13.353Z,2.30
2019-01-02T06:01:41.793Z,2.30
2019-01-02T06:04:10.242Z,2.30
2019-01-02T06:06:38.673Z,2.30
2019-01-02T06:09:07.203Z,2.30
2019-01-02T06:11:35.631Z,2.40
2019-01-02T06:14:04.070Z,2.40
2019-01-02T06:16:32.518Z,2.40
2019-01-02T06:19:00.954Z,2.40
2019-01-02T06:21:29.475Z,2.50
2019-01-02T06:23:57.913Z,2.50
2019-01-02T06:26:26.352Z,2.50
2019-01-02T06:28:54.881Z,2.50
2019-01-02T06:31:23.316Z,2.40
2019-01-02T06:33:51.770Z,2.50
2019-01-02T06:36:20.204Z,2.50
2019-01-02T06:38:48.634Z,2.50
2019-01-02T06:41:17.145Z,2.50
2019-01-02T06:43:45.619Z,2.50
2019-01-02T06:46:14.083Z,2.50
2019-01-02T06:48:42.519Z,2.40
2019-01-02T06:51:10.954Z,2.50
2019-01-02T06:53:39.413Z,2.50
2019-01-02T06:56:07.947Z,2.50
2019-01-02T06:58:36.406Z,2.50
2019-01-02T07:01:11.462Z,2.50
2019-01-02T07:03:39.893Z,2.50
2019-01-02T07:06:08.349Z,2.50
2019-01-02T07:08:36.795Z,2.50
2019-01-02T07:11:05.470Z,2.50
2019-01-02T07:13:33.916Z,2.50
2019-01-02T07:16:02.438Z,2.50
2019-01-02T07:18:30.944Z,2.50
2019-01-02T07:20:59.396Z,2.50
2019-01-02T07:23:28.032Z,2.50
2019-01-02T07:25:56.463Z,2.50
2019-01-02T07:28:24.922Z,2.50
2019-01-02T07:30:53.350Z,2.50
2019-01-02T07:33:25.192Z,2.50
2019-01-02T07:36:14.526Z,2.60
2019-01-02T07:38:51.536Z,2.60
2019-01-02T07:41:56.810Z,2.50
2019-01-02T07:44:37.311Z,2.60
2019-01-02T07:47:42.293Z,2.50
2019-01-02T07:50:25.406Z,2.50
2019-01-02T07:53:14.731Z,2.50
2019-01-02T07:56:02.642Z,2.50
2019-01-02T07:58:46.213Z,2.50
2019-01-02T08:01:23.666Z,2.50
2019-01-02T08:04:10.549Z,2.50
2019-01-02T08:06:59.857Z,2.50
2019-01-02T08:09:43.193Z,2.50
2019-01-02T08:12:17.318Z,2.50
2019-01-02T08:15:02.996Z,2.60
2019-01-02T08:17:50.711Z,2.60
2019-01-02T08:20:43.038Z,2.60
2019-01-02T08:27:00.131Z,2.60
2019-01-02T08:29:34.443Z,2.60
2019-01-02T08:32:23.797Z,2.60
2019-01-02T08:35:18.122Z,2.60
2019-01-02T08:38:04.892Z,2.60
2019-01-02T08:40:51.518Z,2.70
2019-01-02T08:43:32.051Z,2.70
2019-01-02T08:46:24.134Z,2.70
2019-01-02T08:49:04.186Z,2.70
2019-01-02T08:51:55.304Z,2.70
2019-01-02T08:54:52.521Z,2.70
2019-01-02T08:57:43.946Z,2.80
2019-01-02T09:00:48.474Z,2.80
2019-01-02T09:03:52.080Z,2.90
2019-01-02T09:06:53.254Z,3.00
2019-01-02T09:09:44.472Z,3.10
2019-01-02T09:12:19.067Z,3.20
2019-01-02T09:14:59.525Z,3.10
2019-01-02T09:17:58.514Z,3.00
2019-01-02T09:20:49.826Z,3.00
2019-01-02T09:23:37.783Z,3.10
2019-01-02T09:26:23.832Z,3.20
2019-01-02T09:29:12.118Z,3.20
2019-01-02T09:32:19.228Z,3.30
2019-01-02T09:38:29.610Z,3.40
2019-01-02T09:41:41.467Z,3.40
2019-01-02T09:44:34.866Z,3.40
2019-01-02T09:47:32.455Z,3.30
2019-01-02T09:50:21.866Z,3.30
2019-01-02T09:52:56.462Z,3.30
2019-01-02T09:55:48.477Z,3.30
2019-01-02T09:58:26.030Z,3.30
2019-01-02T10:00:57.623Z,3.30
2019-01-02T10:03:53.342Z,3.30
2019-01-02T10:06:36.927Z,3.40
2019-01-02T10:09:41.734Z,3.50
2019-01-02T10:12:31.151Z,3.50
2019-01-02T10:15:05.514Z,3.60
2019-01-02T10:17:37.031Z,3.50
2019-01-02T10:20:32.673Z,3.50
2019-01-02T10:23:19.057Z,3.40
2019-01-02T10:25:50.590Z,3.40
2019-01-02T10:28:41.645Z,3.40
2019-01-02T10:31:15.736Z,3.40
2019-01-02T10:34:19.347Z,3.40
2019-01-02T10:37:07.291Z,3.30
2019-01-02T10:39:53.908Z,3.20
2019-01-02T10:42:34.425Z,3.20
2019-01-02T10:45:25.569Z,3.10
2019-01-02T10:47:57.099Z,3.00
2019-01-02T10:50:34.524Z,2.90
2019-01-02T10:53:08.877Z,3.00
2019-01-02T10:56:13.646Z,2.90
2019-01-02T10:58:45.166Z,3.00
2019-01-02T11:01:37.911Z,2.90
2019-01-02T11:04:21.380Z,2.90
2019-01-02T11:07:10.480Z,2.80
2019-01-02T11:09:47.942Z,2.80
2019-01-02T11:12:22.487Z,2.80
2019-01-02T11:15:15.934Z,2.70
2019-01-02T11:17:59.134Z,2.80
2019-01-02T11:21:00.719Z,2.80
2019-01-02T11:23:41.274Z,2.90
2019-01-02T11:26:21.398Z,3.00
2019-01-02T11:28:55.879Z,3.10
2019-01-02T11:32:02.898Z,3.30
2019-01-02T11:34:34.415Z,3.40
2019-01-02T11:37:39.287Z,3.40
2019-01-02T11:40:45.111Z,3.50
2019-01-02T11:43:31.673Z,3.60
2019-01-02T11:46:00.103Z,3.50
2019-01-02T11:48:47.902Z,3.60
2019-01-02T11:51:16.670Z,3.60
2019-01-02T11:53:45.442Z,3.70
2019-01-02T11:56:13.970Z,3.60
2019-01-02T11:58:42.473Z,3.60
2019-01-02T12:01:13.180Z,3.60
2019-01-02T12:03:42.222Z,3.60
2019-01-02T12:06:11.388Z,3.60
2019-01-02T12:08:40.743Z,3.60
2019-01-02T12:11:28.906Z,3.60
2019-01-02T12:13:58.468Z,3.70
2019-01-02T12:16:28.960Z,3.70
2019-01-02T12:18:57.446Z,3.80
2019-01-02T12:21:28.203Z,3.80
2019-01-02T12:23:58.444Z,3.70
2019-01-02T12:26:28.418Z,3.70
2019-01-02T12:28:56.872Z,3.80
2019-01-02T12:31:26.916Z,3.80
2019-01-02T12:33:56.454Z,3.80
2019-01-02T12:36:24.982Z,3.90
2019-01-02T12:38:53.486Z,3.90
2019-01-02T12:41:22.557Z,4.00
2019-01-02T12:43:51.324Z,4.00
2019-01-02T12:46:21.755Z,4.20
2019-01-02T12:48:50.436Z,4.20
2019-01-02T12:51:18.942Z,4.20
2019-01-02T12:53:47.399Z,4.20
2019-01-02T12:56:15.922Z,4.20
2019-01-02T12:58:44.449Z,4.20
2019-01-02T13:01:15.118Z,4.30
2019-01-02T13:03:55.914Z,4.30
2019-01-02T13:07:02.387Z,4.50
2019-01-02T13:09:33.951Z,4.80
2019-01-02T13:12:11.167Z,5.20
2019-01-02T13:14:59.174Z,5.10
2019-01-02T13:17:45.523Z,5.20
2019-01-02T13:20:17.058Z,5.20
2019-01-02T13:23:09.796Z,5.30
2019-01-02T13:25:46.919Z,5.10
2019-01-02T13:28:33.111Z,4.90
2019-01-02T13:31:16.790Z,4.90
2019-01-02T13:33:54.574Z,4.80
2019-01-02T13:36:35.618Z,5.20
2019-01-02T13:39:09.499Z,5.60
2019-01-02T13:41:56.254Z,5.70
2019-01-02T13:44:57.814Z,5.70
2019-01-02T13:47:38.249Z,5.80
2019-01-02T13:50:09.763Z,5.90
2019-01-02T13:52:38.198Z,5.90
2019-01-02T13:55:09.766Z,5.90
2019-01-02T13:57:38.217Z,5.90
2019-01-02T14:00:09.906Z,5.80
2019-01-02T14:02:38.337Z,5.70
2019-01-02T14:05:10.822Z,6.00
2019-01-02T14:07:39.280Z,5.90
2019-01-02T14:10:08.272Z,6.10
2019-01-02T14:12:36.834Z,6.30
2019-01-02T14:15:06.598Z,6.20
2019-01-02T14:17:35.063Z,6.20
2019-01-02T14:20:22.878Z,6.30
2019-01-02T14:22:51.394Z,5.90
2019-01-02T14:25:19.831Z,5.40
2019-01-02T14:27:48.500Z,5.20
2019-01-02T14:30:17.166Z,5.10
2019-01-02T14:32:45.618Z,5.10
2019-01-02T14:35:14.074Z,4.90
2019-01-02T14:37:42.507Z,4.70
2019-01-02T14:40:11.063Z,4.60
2019-01-02T14:42:39.570Z,4.50
2019-01-02T14:45:08.399Z,4.40
2019-01-02T14:47:36.937Z,4.50
2019-01-02T14:52:57.199Z,4.40
2019-01-02T14:55:25.719Z,4.40
2019-01-02T14:57:54.206Z,4.40
2019-01-02T15:00:22.717Z,4.30
2019-01-02T15:03:10.728Z,4.30
2019-01-02T15:05:39.565Z,4.40
2019-01-02T15:08:08.099Z,4.30
2019-01-02T15:10:36.619Z,4.30
2019-01-02T15:13:05.137Z,4.20
2019-01-02T15:15:33.778Z,4.20
2019-01-02T15:18:18.719Z,4.20
2019-01-02T15:20:47.491Z,4.10
2019-01-02T15:23:16.007Z,3.90
2019-01-02T15:25:44.455Z,3.80
2019-01-02T15:28:13.095Z,3.70
2019-01-02T15:30:41.725Z,3.70
2019-01-02T15:33:10.426Z,3.60
2019-01-02T15:35:38.934Z,3.60
2019-01-02T15:38:07.424Z,3.50
2019-01-02T15:40:35.971Z,3.50
2019-01-02T15:43:04.438Z,3.50
2019-01-02T15:45:33.266Z,3.50
2019-01-02T15:48:01.802Z,3.40
2019-01-02T15:50:30.290Z,3.40
2019-01-02T15:52:58.808Z,3.40
2019-01-02T15:55:27.314Z,3.40
2019-01-02T15:57:55.856Z,3.30
2019-01-02T16:00:24.291Z,3.30
2019-01-02T16:02:52.750Z,3.20
2019-01-02T16:05:21.198Z,3.00
2019-01-02T16:07:49.635Z,2.90
2019-01-02T16:10:18.119Z,2.80
2019-01-02T16:12:47.505Z,2.70
2019-01-02T16:15:16.163Z,2.70
2019-01-02T16:17:44.595Z,2.50
2019-01-02T16:20:13.047Z,2.50
2019-01-02T16:22:41.505Z,2.50
2019-01-02T16:25:10.112Z,2.40
2019-01-02T16:27:42.118Z,2.40
2019-01-02T16:30:29.896Z,2.30
2019-01-02T16:32:58.364Z,2.30
2019-01-02T16:35:26.939Z,2.20
2019-01-02T16:37:55.716Z,2.20
2019-01-02T16:40:24.546Z,2.10
2019-01-02T16:42:53.336Z,2.10
2019-01-02T16:45:22.110Z,2.10
2019-01-02T16:47:50.812Z,2.00
2019-01-02T16:50:19.338Z,2.00
2019-01-02T16:52:47.956Z,1.90
2019-01-02T16:55:16.576Z,1.90
2019-01-02T16:57:46.346Z,1.90
2019-01-02T17:00:15.322Z,1.80
2019-01-02T17:02:44.155Z,1.70
2019-01-02T17:05:12.746Z,1.70
2019-01-02T17:07:41.246Z,1.70
2019-01-02T17:10:11.350Z,1.60
2019-01-02T17:12:39.834Z,1.50
2019-01-02T17:15:09.087Z,1.50
2019-01-02T17:17:37.907Z,1.50
2019-01-02T17:20:08.325Z,1.40
2019-01-02T17:22:39.197Z,1.40
2019-01-02T17:25:08.574Z,1.40
2019-01-02T17:27:37.045Z,1.30
2019-01-02T17:30:26.350Z,1.30
2019-01-02T17:32:54.811Z,1.30
2019-01-02T17:35:23.246Z,1.30
2019-01-02T17:37:51.690Z,1.20
2019-01-02T17:40:20.263Z,1.20
2019-01-02T17:42:48.791Z,1.20
2019-01-02T17:45:17.319Z,1.10
2019-01-02T17:48:05.346Z,1.10
2019-01-02T17:50:33.828Z,1.10
2019-01-02T17:53:02.584Z,1.00
2019-01-02T17:55:31.084Z,1.00
2019-01-02T17:57:59.675Z,1.00
2019-01-02T18:00:28.126Z,1.00
2019-01-02T18:02:56.655Z,0.90
2019-01-02T18:05:25.109Z,0.90
2019-01-02T18:08:12.910Z,0.90
2019-01-02T18:10:41.381Z,0.90
2019-01-02T18:13:09.848Z,0.80
2019-01-02T18:15:38.367Z,0.80
2019-01-02T18:18:06.810Z,0.80
2019-01-02T18:20:35.271Z,0.70
2019-01-02T18:23:03.727Z,0.70
2019-01-02T18:25:32.272Z,0.70
2019-01-02T18:28:00.779Z,0.70
2019-01-02T18:30:29.297Z,0.70
2019-01-02T18:32:57.845Z,0.70
2019-01-02T18:35:26.567Z,0.70
2019-01-02T18:37:55.210Z,0.70
2019-01-02T18:40:23.981Z,0.60
2019-01-02T18:42:52.538Z,0.80
2019-01-02T18:45:21.023Z,0.90
2019-01-02T18:47:50.180Z,1.00
2019-01-02T18:50:18.924Z,1.20
2019-01-02T18:52:47.606Z,1.30
2019-01-02T18:55:16.332Z,1.10
2019-01-02T18:57:45.150Z,1.00
2019-01-02T19:00:13.752Z,0.80
2019-01-02T19:02:42.410Z,0.60
2019-01-02T19:05:10.947Z,0.60
2019-01-02T19:07:39.480Z,0.50
2019-01-02T19:10:07.999Z,0.40
2019-01-02T19:12:36.695Z,0.40
2019-01-02T19:15:06.763Z,0.30
2019-01-02T19:17:35.191Z,0.30
2019-01-02T19:20:04.494Z,0.30
2019-01-02T19:22:33.079Z,0.20
2019-01-02T19:25:01.722Z,0.20
2019-01-02T19:27:30.191Z,0.10
2019-01-02T19:29:58.974Z,0.00
2019-01-02T19:32:27.482Z,0.00
2019-01-02T19:34:55.949Z,0.00
2019-01-02T19:37:25.607Z,-0.10
2019-01-02T19:39:54.271Z,-0.10
2019-01-02T19:42:22.753Z,-0.20
2019-01-02T19:44:51.744Z,-0.20
2019-01-02T19:47:20.318Z,-0.20
2019-01-02T19:49:48.779Z,-0.20
2019-01-02T19:52:17.519Z,-0.20
2019-01-02T19:54:46.881Z,-0.20
2019-01-02T19:57:16.072Z,-0.30
2019-01-02T19:59:45.026Z,-0.30
2019-01-02T20:02:14.235Z,-0.30
2019-01-02T20:04:42.870Z,-0.30
2019-01-02T20:07:12.230Z,-0.20
2019-01-02T20:09:41.935Z,-0.20
2019-01-02T20:12:10.520Z,-0.30
2019-01-02T20:14:39.683Z,-0.20
2019-01-02T20:17:08.127Z,-0.30
2019-01-02T20:19:37.400Z,-0.30
2019-01-02T20:22:06.871Z,-0.30
2019-01-02T20:24:35.541Z,-0.40
2019-01-02T20:27:04.857Z,-0.40
2019-01-02T20:29:33.362Z,-0.40
2019-01-02T20:32:04.312Z,-0.40
2019-01-02T20:34:33.387Z,-0.40
2019-01-02T20:37:01.893Z,-0.40
2019-01-02T20:39:31.023Z,-0.50
2019-01-02T20:41:59.558Z,-0.50
2019-01-02T20:44:28.095Z,-0.50
2019-01-02T20:46:59.341Z,-0.50
2019-01-02T20:49:28.846Z,-0.60
2019-01-02T20:51:57.301Z,-0.60
2019-01-02T20:54:25.777Z,-0.60
2019-01-02T20:56:54.620Z,-0.60
2019-01-02T20:59:23.558Z,-0.60
2019-01-02T21:01:59.435Z,-0.70
2019-01-02T21:04:35.461Z,-0.70
2019-01-02T21:07:03.927Z,-0.70
2019-01-02T21:09:32.618Z,-0.70
2019-01-02T21:12:01.231Z,-0.70
2019-01-02T21:14:29.750Z,-0.80
2019-01-02T21:17:00.973Z,-0.80
2019-01-02T21:19:29.554Z,-0.80
2019-01-02T21:22:01.695Z,-0.80
2019-01-02T21:24:30.198Z,-0.80
2019-01-02T21:27:00.773Z,-0.80
2019-01-02T21:29:32.170Z,-0.90
2019-01-02T21:32:01.998Z,-0.80
2019-01-02T21:34:30.792Z,-0.80
2019-01-02T21:36:59.662Z,-0.80
2019-01-02T21:39:28.713Z,-0.80
2019-01-02T21:41:57.569Z,-0.80
2019-01-02T21:44:27.298Z,-0.80
2019-01-02T21:46:58.501Z,-0.90
2019-01-02T21:49:27.093Z,-0.90
2019-01-02T21:51:55.869Z,-0.90
2019-01-02T21:54:24.397Z,-1.00
2019-01-02T21:56:59.966Z,-1.00
2019-01-02T21:59:28.601Z,-0.90
2019-01-02T22:01:58.352Z,-0.90
2019-01-02T22:04:28.274Z,-1.00
2019-01-02T22:06:57.052Z,-1.00
2019-01-02T22:09:26.621Z,-1.00
2019-01-02T22:11:55.272Z,-1.00
2019-01-02T22:14:27.569Z,-1.00
2019-01-02T22:16:57.481Z,-1.00
2019-01-02T22:19:29.954Z,-1.00
2019-01-02T22:21:59.735Z,-1.00
2019-01-02T22:24:43.754Z,-1.00
2019-01-02T22:27:09.860Z,-1.00
2019-01-02T22:29:41.778Z,-1.00
2019-01-02T22:32:10.577Z,-0.90
2019-01-02T22:34:39.018Z,-1.00
2019-01-02T22:37:07.948Z,-1.00
2019-01-02T22:39:36.574Z,-1.00
2019-01-02T22:42:05.034Z,-1.00
2019-01-02T22:44:33.493Z,-1.00
2019-01-02T22:47:02.009Z,-0.90
2019-01-02T22:49:30.720Z,-0.90
2019-01-02T22:51:59.270Z,-1.00
2019-01-02T22:54:28.201Z,-1.00
2019-01-02T22:56:56.928Z,-1.10
2019-01-02T22:59:37.990Z,-1.10
2019-01-02T23:02:08.401Z,-1.10
2019-01-02T23:04:41.248Z,-1.20
2019-01-02T23:07:29.634Z,-1.20
2019-01-02T23:10:06.271Z,-1.20
2019-01-02T23:12:36.375Z,-1.30
2019-01-02T23:15:07.381Z,-1.30
2019-01-02T23:17:43.430Z,-1.30
2019-01-02T23:20:34.834Z,-1.30
2019-01-02T23:23:14.328Z,-1.30
2019-01-02T23:25:52.633Z,-1.30
2019-01-02T23:28:41.349Z,-1.30
2019-01-02T23:31:28.412Z,-1.20
2019-01-02T23:34:13.702Z,-1.10
2019-01-02T23:37:01.571Z,-1.10
2019-01-02T23:39:48.217Z,-1.00
2019-01-02T23:42:36.878Z,-1.00
2019-01-02T23:45:24.281Z,-1.00
2019-01-02T23:48:12.847Z,-1.00
2019-01-02T23:50:59.347Z,-1.00
2019-01-02T23:53:29.568Z,-1.00
2019-01-02T23:56:15.996Z,-1.00
2019-01-02T23:59:02.498Z,-1.00
